Time;durP1;ratioP1;P1;durP2;ratioP2;P2;SDS_P1;SDS_P2;PMS_P1;PMS_P2;Temp;Humidity;BMP_temperature;BMP_pressure;BME280_temperature;BME280_humidity;BME280_pressure;Samples;Min_cycle;Max_cycle;Signal;HPM_P1;HPM_P2
2022/01/30 00:04:25;;;;;;;23.60;7.68;;;;;;;6.34;84.67;102807.50;10496739;28;20032;-75
2022/01/30 00:09:25;;;;;;;23.63;7.25;;;;;;;6.33;85.30;102810.31;10497376;28;20124;-75
2022/01/30 00:14:29;;;;;;;37.47;7.97;;;;;;;6.17;86.07;102813.38;10498879;28;20025;-75
2022/01/30 00:19:38;;;;;;;29.10;7.45;;;;;;;6.14;86.66;102813.63;10498410;28;20036;-74
2022/01/30 00:25:15;;;;;;;14.57;7.75;;;;;;;6.07;87.61;102815.94;10497759;28;20032;-75
2022/01/30 00:30:07;;;;;;;31.33;9.63;;;;;;;6.03;88.09;102819.81;10496241;28;20064;-75
2022/01/30 00:35:11;;;;;;;34.85;8.68;;;;;;;5.97;88.39;102823.88;10497854;28;20083;-75
2022/01/30 00:40:11;;;;;;;13.40;5.43;;;;;;;5.94;88.69;102829.50;10501099;28;20028;-74
2022/01/30 00:45:12;;;;;;;29.33;6.78;;;;;;;5.93;88.94;102830.44;10504383;28;20107;-75
2022/01/30 00:50:12;;;;;;;35.15;8.13;;;;;;;5.83;89.06;102834.81;10504510;28;20094;-74
2022/01/30 00:55:13;;;;;;;25.02;6.65;;;;;;;5.79;89.25;102844.94;10503906;28;20049;-75
2022/01/30 01:00:15;;;;;;;36.15;8.25;;;;;;;5.82;89.16;102839.31;10510163;28;20032;-75
2022/01/30 01:05:16;;;;;;;40.92;8.57;;;;;;;5.80;88.83;102841.28;10503174;28;20028;-75
2022/01/30 01:10:29;;;;;;;31.05;7.55;;;;;;;5.85;89.04;102843.63;10504156;28;20028;-75
2022/01/30 01:26:07;;;;;;;33.08;7.45;;;;;;;5.80;87.98;102841.28;10503568;28;20064;-74
2022/01/30 01:31:07;;;;;;;16.45;6.85;;;;;;;5.80;88.06;102851.16;10545211;28;20460;-74
2022/01/30 01:36:08;;;;;;;32.28;7.90;;;;;;;5.87;87.92;102854.25;10510207;28;20100;-75
2022/01/30 01:41:08;;;;;;;21.58;7.30;;;;;;;5.72;86.85;102851.78;10527363;28;20064;-75
2022/01/30 01:46:15;;;;;;;36.10;7.38;;;;;;;5.82;87.63;102851.94;10509811;28;20098;-74
2022/01/30 01:51:20;;;;;;;31.80;7.22;;;;;;;5.92;87.29;102852.06;10544603;28;20348;-75
2022/01/30 01:56:22;;;;;;;16.65;6.13;;;;;;;5.78;86.02;102854.00;10527954;28;20052;-75
2022/01/30 02:01:24;;;;;;;19.50;7.30;;;;;;;5.72;85.56;102854.47;10509663;28;20032;-74
2022/01/30 02:06:27;;;;;;;20.52;6.55;;;;;;;5.73;85.25;102866.91;10545078;28;20033;-75
2022/01/30 02:11:35;;;;;;;32.00;5.53;;;;;;;5.71;84.88;102865.31;10543569;28;20032;-75
2022/01/30 02:27:20;;;;;;;15.85;5.05;;;;;;;5.61;84.47;102862.47;10528495;28;20032;-75
2022/01/30 02:32:20;;;;;;;15.38;6.32;;;;;;;5.58;83.77;102857.34;10542462;28;20070;-75
2022/01/30 02:37:21;;;;;;;14.38;5.07;;;;;;;5.61;84.30;102862.47;10543248;28;20471;-75
2022/01/30 02:42:25;;;;;;;15.90;3.92;;;;;;;5.52;83.67;102858.69;10542441;28;20456;-75
2022/01/30 02:52:37;;;;;;;29.20;5.47;;;;;;;5.65;83.24;102858.59;10543921;28;20044;-75
2022/01/30 02:57:37;;;;;;;25.40;8.30;;;;;;;5.64;83.94;102869.44;10524572;28;20040;-74
2022/01/30 03:02:38;;;;;;;19.38;6.32;;;;;;;5.55;84.31;102863.81;10540667;28;20040;-74
2022/01/30 03:07:38;;;;;;;17.77;7.07;;;;;;;5.57;84.90;102866.38;10542035;28;20463;-74
2022/01/30 03:12:39;;;;;;;15.68;6.22;;;;;;;5.52;85.84;102863.16;10546827;28;20040;-73
2022/01/30 03:17:40;;;;;;;37.72;6.50;;;;;;;5.80;84.98;102861.94;10540836;28;20399;-75
2022/01/30 03:22:40;;;;;;;15.82;4.50;;;;;;;6.04;79.96;102881.59;10523676;28;20028;-75
2022/01/30 03:27:43;;;;;;;16.27;4.32;;;;;;;6.18;80.36;102875.13;10540513;28;20418;-75
2022/01/30 03:32:44;;;;;;;10.65;3.95;;;;;;;6.26;79.30;102886.16;10506453;28;20038;-75
2022/01/30 03:37:44;;;;;;;24.77;5.75;;;;;;;6.02;78.17;102898.81;10540470;28;20044;-75
2022/01/30 03:42:45;;;;;;;16.92;4.75;;;;;;;6.02;79.27;102896.13;10540264;28;20043;-75
2022/01/30 03:47:45;;;;;;;21.42;5.15;;;;;;;6.23;79.70;102891.75;10539483;28;20078;-75
2022/01/30 03:52:45;;;;;;;11.13;4.00;;;;;;;6.27;80.25;102893.22;10522106;28;20039;-75
2022/01/30 03:57:46;;;;;;;13.68;5.18;;;;;;;6.26;80.68;102891.53;10540312;28;20495;-75
2022/01/30 04:02:46;;;;;;;26.77;5.78;;;;;;;6.42;81.40;102901.94;10539214;28;20107;-75
2022/01/30 04:07:47;;;;;;;14.15;4.80;;;;;;;6.53;80.68;102903.78;10539744;28;20536;-75
2022/01/30 04:12:47;;;;;;;24.55;5.78;;;;;;;6.48;79.23;102904.16;10540265;28;20048;-75
2022/01/30 04:17:48;;;;;;;12.65;3.00;;;;;;;6.50;77.23;102906.69;10548889;28;20047;-75
2022/01/30 04:22:48;;;;;;;12.90;4.22;;;;;;;6.39;77.65;102909.41;10548118;28;20028;-75
2022/01/30 04:27:49;;;;;;;20.42;4.63;;;;;;;6.03;77.38;102911.28;10529238;28;20458;-75
2022/01/30 04:32:49;;;;;;;20.02;5.50;;;;;;;5.84;79.42;102914.50;10547760;28;20032;-75
2022/01/30 04:59:06;;;;;;;12.50;4.82;;;;;;;5.35;81.74;102931.63;10529766;28;20048;-74
2022/01/30 05:09:36;;;;;;;19.83;5.68;;;;;;;5.25;82.17;102952.06;10508518;28;20055;-74
2022/01/30 05:14:37;;;;;;;11.65;3.83;;;;;;;5.14;82.23;102958.25;10546609;28;20059;-74
2022/01/30 05:19:38;;;;;;;28.90;4.53;;;;;;;5.13;81.85;102959.19;10545862;28;20379;-74
2022/01/30 05:24:39;;;;;;;13.18;3.92;;;;;;;5.18;80.30;102943.59;10544875;28;20043;-74
2022/01/30 05:29:39;;;;;;;20.73;4.43;;;;;;;5.23;80.95;102962.94;10529560;28;20028;-75
2022/01/30 05:34:40;;;;;;;26.10;6.55;;;;;;;5.19;81.23;102976.69;10527539;28;20040;-74
2022/01/30 05:39:41;;;;;;;14.13;4.03;;;;;;;5.18;81.05;102974.97;10545686;28;20348;-74
2022/01/30 05:44:57;;;;;;;13.25;5.82;;;;;;;5.25;80.89;102993.22;10544790;28;20171;-75
2022/01/30 05:49:58;;;;;;;31.07;5.60;;;;;;;5.38;81.24;103001.25;10529212;28;20040;-75
2022/01/30 05:54:58;;;;;;;22.55;6.53;;;;;;;5.58;81.43;103007.84;10544551;28;20359;-75
2022/01/30 06:00:00;;;;;;;28.33;5.20;;;;;;;5.91;80.13;103017.06;10527953;28;20048;-75
2022/01/30 06:05:00;;;;;;;17.48;5.93;;;;;;;6.09;80.16;103026.47;10545568;28;20095;-75
2022/01/30 06:10:00;;;;;;;29.58;4.95;;;;;;;5.76;78.89;103032.50;10527358;28;20063;-75
2022/01/30 06:15:01;;;;;;;24.30;7.03;;;;;;;5.50;79.44;103037.97;10543573;28;20039;-75
2022/01/30 06:20:01;;;;;;;16.20;5.13;;;;;;;5.41;78.79;103043.16;10524544;28;20039;-74
2022/01/30 06:25:02;;;;;;;20.83;5.60;;;;;;;5.33;77.45;103035.66;10542535;28;20035;-75
2022/01/30 06:30:04;;;;;;;22.38;6.30;;;;;;;5.29;77.27;103045.75;10543291;28;20043;-74
2022/01/30 06:35:05;;;;;;;13.85;4.60;;;;;;;5.39;77.60;103047.78;10542314;28;20036;-74
2022/01/30 06:40:06;;;;;;;30.00;7.43;;;;;;;5.49;78.28;103040.78;10542656;28;20024;-74
2022/01/30 06:45:07;;;;;;;23.17;7.78;;;;;;;5.50;79.13;103048.72;10542940;28;20042;-74
2022/01/30 06:50:08;;;;;;;15.65;5.88;;;;;;;5.68;79.43;103061.78;10507665;28;20090;-74
2022/01/30 06:55:08;;;;;;;19.25;6.00;;;;;;;5.87;78.60;103054.09;10506958;28;20094;-74
2022/01/30 07:00:09;;;;;;;20.23;6.22;;;;;;;6.00;78.50;103051.38;10524654;28;20384;-74
2022/01/30 07:05:10;;;;;;;24.73;6.50;;;;;;;5.83;77.55;103050.75;10541444;28;20452;-74
2022/01/30 07:10:10;;;;;;;32.22;7.40;;;;;;;5.57;78.33;103060.72;10541440;28;20043;-74
2022/01/30 07:15:11;;;;;;;21.55;5.43;;;;;;;5.42;79.78;103077.97;10522176;28;20059;-73
2022/01/30 07:20:11;;;;;;;22.63;8.20;;;;;;;5.18;80.89;103080.59;10522480;28;20089;-74
2022/01/30 07:25:11;;;;;;;27.45;7.95;;;;;;;5.04;81.50;103089.63;10522221;28;20066;-74
2022/01/30 07:30:12;;;;;;;19.77;6.57;;;;;;;4.95;82.78;103106.38;10541236;28;20095;-74
2022/01/30 07:35:12;;;;;;;21.05;5.40;;;;;;;4.88;83.29;103108.63;10539993;28;20111;-74
2022/01/30 07:40:13;;;;;;;34.42;5.97;;;;;;;4.92;83.22;103113.78;10541612;28;20039;-74
2022/01/30 07:45:13;;;;;;;22.48;6.20;;;;;;;5.06;83.67;103097.56;10547116;28;20360;-75
2022/01/30 07:50:14;;;;;;;43.60;8.00;;;;;;;5.14;84.10;103095.22;10540736;28;20036;-74
2022/01/30 07:55:14;;;;;;;11.50;5.32;;;;;;;5.37;84.61;103096.25;10505018;28;20389;-72
2022/01/30 08:00:15;;;;;;;23.30;7.47;;;;;;;5.57;84.64;103101.03;10540482;28;20040;-74
2022/01/30 08:05:15;;;;;;;30.15;9.10;;;;;;;5.79;84.81;103092.28;10540638;28;20067;-74
2022/01/30 08:10:16;;;;;;;34.00;7.25;;;;;;;6.12;84.23;103098.84;10539185;28;20032;-74
2022/01/30 08:15:16;;;;;;;31.10;7.78;;;;;;;6.43;83.89;103100.09;10539395;28;20028;-74
2022/01/30 08:20:18;;;;;;;28.65;7.22;;;;;;;6.78;82.92;103090.31;10521279;28;20082;-74
2022/01/30 08:25:20;;;;;;;23.33;6.35;;;;;;;6.89;80.75;103095.72;10522485;28;20028;-75
2022/01/30 08:30:20;;;;;;;26.30;6.82;;;;;;;6.86;81.62;103104.03;10521094;28;20163;-74
2022/01/30 08:35:22;;;;;;;36.65;8.32;;;;;;;6.81;81.71;103108.94;10504901;28;20119;-75
2022/01/30 08:40:23;;;;;;;40.92;8.13;;;;;;;7.17;80.34;103111.44;10538998;28;20107;-74
2022/01/30 08:45:24;;;;;;;13.70;5.78;;;;;;;7.46;78.22;103114.50;10505212;28;20036;-74
2022/01/30 08:50:24;;;;;;;21.05;6.18;;;;;;;7.58;76.63;103112.66;10522334;28;20040;-74
2022/01/30 08:55:29;;;;;;;34.47;6.05;;;;;;;7.90;76.97;103109.19;10538073;28;20137;-74
2022/01/30 09:00:29;;;;;;;13.43;6.05;;;;;;;8.06;76.00;103100.69;10542855;28;20174;-74
2022/01/30 09:05:30;;;;;;;29.80;5.22;;;;;;;8.30;77.11;103117.56;10546244;28;20506;-75
2022/01/30 09:10:37;;;;;;;21.85;8.23;;;;;;;8.76;72.73;103118.22;10546527;28;20082;-74
2022/01/30 09:15:40;;;;;;;36.40;6.55;;;;;;;9.11;72.66;103130.56;10545890;28;20455;-74
2022/01/30 09:20:41;;;;;;;22.65;6.32;;;;;;;9.40;73.25;103130.72;10527584;28;20125;-75
2022/01/30 09:25:42;;;;;;;20.33;5.63;;;;;;;9.90;74.37;103139.72;10527213;28;20422;-74
2022/01/30 09:30:42;;;;;;;21.50;6.47;;;;;;;10.68;73.71;103137.97;10527095;28;20028;-74
2022/01/30 09:35:42;;;;;;;18.63;6.57;;;;;;;10.42;71.70;103161.22;10545118;28;20032;-74
2022/01/30 09:40:43;;;;;;;12.38;5.57;;;;;;;9.89;72.89;103148.84;10526485;28;20472;-74
2022/01/30 09:45:44;;;;;;;21.02;5.07;;;;;;;10.75;68.24;103165.38;10544688;28;20044;-73
2022/01/30 09:50:44;;;;;;;10.68;4.55;;;;;;;10.60;65.30;103151.41;10545012;28;20101;-75
2022/01/30 09:55:44;;;;;;;16.38;7.40;;;;;;;11.75;71.23;103158.56;10510152;28;20498;-75
2022/01/30 10:00:45;;;;;;;11.55;5.43;;;;;;;11.92;70.93;103146.94;10531757;28;20039;-75
2022/01/30 10:06:14;;;;;;;18.17;4.85;;;;;;;11.32;67.59;103144.56;10526404;28;20042;-75
2022/01/30 10:11:29;;;;;;;15.07;5.43;;;;;;;10.07;71.99;103159.00;10543309;28;20078;-75
2022/01/30 10:16:42;;;;;;;23.65;6.60;;;;;;;11.57;71.13;103164.78;10527148;28;20054;-75
2022/01/30 10:21:43;;;;;;;6.93;5.65;;;;;;;11.35;69.67;103152.41;10544290;28;20024;-75
2022/01/30 10:26:44;;;;;;;14.90;5.18;;;;;;;11.18;65.42;103166.75;10544199;28;20375;-75
2022/01/30 10:32:07;;;;;;;21.95;5.47;;;;;;;11.70;60.97;103175.28;10524772;28;20468;-75
2022/01/30 10:37:22;;;;;;;9.55;5.55;;;;;;;10.73;64.67;103167.38;10524785;28;20028;-75
2022/01/30 10:42:45;;;;;;;8.73;4.78;;;;;;;12.01;65.41;103175.88;10542176;28;20032;-75
2022/01/30 10:47:46;;;;;;;19.20;3.83;;;;;;;12.39;63.57;103175.81;10543774;28;20027;-76
2022/01/30 10:52:56;;;;;;;17.33;4.90;;;;;;;12.87;66.18;103166.41;10541362;28;20467;-76
2022/01/30 10:57:59;;;;;;;8.57;4.05;;;;;;;12.53;61.85;103167.97;10542553;28;20048;-75
2022/01/30 11:02:59;;;;;;;10.80;4.30;;;;;;;11.70;61.75;103178.00;10541344;28;20078;-75
2022/01/30 11:08:00;;;;;;;23.23;4.43;;;;;;;11.62;66.38;103180.63;10507728;28;20383;-75
2022/01/30 11:13:09;;;;;;;9.73;4.90;;;;;;;12.99;64.45;103185.03;10540719;28;20054;-77
2022/01/30 11:18:12;;;;;;;16.05;3.50;;;;;;;13.73;62.52;103180.09;10524860;28;20032;-74
2022/01/30 11:23:12;;;;;;;19.75;6.05;;;;;;;12.04;65.07;103174.75;10522596;28;20452;-75
2022/01/30 11:28:15;;;;;;;6.18;3.58;;;;;;;10.58;62.49;103174.22;10524021;28;20024;-74
2022/01/30 11:33:15;;;;;;;18.85;5.20;;;;;;;9.69;65.52;103174.09;10492087;28;20400;-76
2022/01/30 11:38:16;;;;;;;11.45;3.92;;;;;;;9.41;69.68;103190.09;10505120;28;20024;-76
2022/01/30 11:43:21;;;;;;;23.15;4.72;;;;;;;8.87;69.25;103182.16;10490085;28;20066;-76
2022/01/30 11:48:21;;;;;;;13.95;5.00;;;;;;;9.61;67.04;103166.69;10523517;28;20028;-75
2022/01/30 11:53:28;;;;;;;15.23;5.35;;;;;;;10.78;68.58;103161.50;10521212;28;20471;-75
2022/01/30 11:58:49;;;;;;;27.98;6.38;;;;;;;9.91;65.02;103157.66;10541573;28;20048;-76
2022/01/30 12:04:00;;;;;;;19.73;4.90;;;;;;;9.25;68.93;103139.19;10490232;28;20076;-75
2022/01/30 12:09:02;;;;;;;15.02;5.47;;;;;;;9.43;69.78;103125.88;10521441;28;20035;-76
2022/01/30 12:14:07;;;;;;;8.82;5.72;;;;;;;10.68;67.98;103115.44;10546150;28;20044;-74
2022/01/30 12:19:07;;;;;;;23.58;4.53;;;;;;;11.64;65.84;103117.03;10522587;28;20063;-76
2022/01/30 12:24:24;;;;;;;10.00;3.80;;;;;;;12.48;64.59;103106.94;10503617;28;20035;-75
2022/01/30 12:29:43;;;;;;;11.00;3.57;;;;;;;11.55;68.92;103101.66;10520882;28;20040;-74
2022/01/30 12:34:43;;;;;;;10.45;5.05;;;;;;;10.23;70.23;103106.00;10507300;28;20416;-74
2022/01/30 12:39:44;;;;;;;9.60;4.60;;;;;;;9.99;68.77;103097.44;10528881;28;20051;-74
2022/01/30 12:44:45;;;;;;;15.05;5.25;;;;;;;10.85;70.11;103082.22;10547044;28;20150;-76
2022/01/30 12:49:51;;;;;;;19.10;5.35;;;;;;;10.26;67.94;103075.13;10512696;28;20080;-75
2022/01/30 12:54:54;;;;;;;9.43;4.95;;;;;;;11.27;66.12;103065.53;10546963;28;20422;-75
2022/01/30 12:59:56;;;;;;;20.65;5.25;;;;;;;11.77;66.89;103057.00;10528156;28;20054;-74
2022/01/30 13:05:09;;;;;;;8.57;3.60;;;;;;;11.91;66.16;103044.78;10527690;28;20451;-77
2022/01/30 13:10:12;;;;;;;10.70;4.75;;;;;;;11.64;63.08;103051.88;10513938;28;20024;-76
2022/01/30 13:15:18;;;;;;;17.00;4.55;;;;;;;10.52;63.52;103031.19;10528472;28;20043;-74
2022/01/30 13:20:25;;;;;;;17.43;3.53;;;;;;;9.83;67.47;103019.50;10527761;28;20035;-75
2022/01/30 13:25:26;;;;;;;9.52;4.43;;;;;;;9.44;68.71;103005.03;10510539;28;20032;-75
2022/01/30 13:30:29;;;;;;;23.00;4.43;;;;;;;9.70;68.97;103000.84;10526171;28;20036;-76
2022/01/30 13:35:30;;;;;;;14.93;5.22;;;;;;;9.77;71.65;103001.97;10526228;28;20463;-75
2022/01/30 13:40:41;;;;;;;9.55;4.35;;;;;;;9.70;69.31;103005.38;10526308;28;20036;-73
2022/01/30 13:50:53;;;;;;;7.97;4.35;;;;;;;9.13;66.31;102993.44;10526288;28;20111;-74
2022/01/30 13:56:15;;;;;;;13.15;4.15;;;;;;;8.68;64.73;102994.66;10526101;28;20044;-73
2022/01/30 14:01:30;;;;;;;12.85;5.45;;;;;;;8.49;66.97;102994.53;10526215;28;20366;-75
2022/01/30 14:06:33;;;;;;;17.27;5.65;;;;;;;8.74;70.03;102977.91;10526993;28;20459;-75
2022/01/30 14:11:35;;;;;;;16.80;5.15;;;;;;;8.61;68.91;102982.66;10525861;28;20380;-75
2022/01/30 14:16:37;;;;;;;7.80;3.38;;;;;;;8.38;69.60;102979.25;10525067;28;20356;-75
2022/01/30 14:21:38;;;;;;;10.15;4.20;;;;;;;8.24;68.49;102955.25;10544794;28;20032;-74
2022/01/30 14:26:38;;;;;;;11.73;5.45;;;;;;;8.31;68.85;102959.13;10546240;28;20109;-74
2022/01/30 14:32:11;;;;;;;15.35;4.63;;;;;;;8.55;68.96;102959.75;10525477;28;20036;-76
2022/01/30 14:37:12;;;;;;;21.63;5.05;;;;;;;8.91;70.07;102941.28;10488808;28;20044;-75
2022/01/30 14:42:12;;;;;;;11.25;5.20;;;;;;;9.16;69.46;102922.88;10525782;28;20392;-74
2022/01/30 14:47:13;;;;;;;13.73;4.85;;;;;;;9.19;69.08;102920.75;10543076;28;20545;-75
2022/01/30 14:52:14;;;;;;;17.70;4.07;;;;;;;8.84;65.02;102921.22;10543174;28;20060;-75
2022/01/30 14:57:15;;;;;;;16.20;4.25;;;;;;;8.23;61.00;102913.94;10523644;28;20395;-75
2022/01/30 15:02:15;;;;;;;17.30;5.30;;;;;;;8.10;65.56;102905.16;10523380;28;20043;-75
2022/01/30 15:07:16;;;;;;;8.05;4.90;;;;;;;7.90;67.82;102896.94;10541246;28;20040;-74
2022/01/30 15:12:17;;;;;;;5.32;3.08;;;;;;;7.59;67.04;102892.41;10491385;28;20416;-75
2022/01/30 15:17:32;;;;;;;22.83;5.30;;;;;;;7.29;69.26;102887.75;10542133;28;20043;-74
2022/01/30 15:22:32;;;;;;;21.00;6.40;;;;;;;7.11;69.48;102863.19;10541050;28;20032;-74
2022/01/30 15:27:32;;;;;;;17.85;6.38;;;;;;;6.97;71.68;102854.41;10505567;28;20032;-75
2022/01/30 15:32:35;;;;;;;38.58;6.50;;;;;;;6.77;72.28;102839.03;10540696;28;20086;-75
2022/01/30 15:37:35;;;;;;;14.07;5.07;;;;;;;6.57;71.17;102827.16;10522374;28;20383;-74
2022/01/30 15:42:36;;;;;;;18.90;5.10;;;;;;;6.39;71.70;102820.59;10527169;28;20032;-74
2022/01/30 15:52:56;;;;;;;18.50;6.43;;;;;;;6.10;73.44;102794.19;10524363;28;20476;-75
2022/01/30 15:57:57;;;;;;;21.38;6.80;;;;;;;5.96;72.76;102786.34;10540359;28;20075;-74
2022/01/30 16:02:57;;;;;;;33.90;6.47;;;;;;;5.93;73.71;102767.75;10538488;28;20333;-75
2022/01/30 16:07:59;;;;;;;18.15;6.18;;;;;;;5.89;73.91;102760.88;10520259;28;20478;-74
2022/01/30 16:18:00;;;;;;;38.65;7.40;;;;;;;5.71;75.10;102747.94;10538858;28;20039;-75
2022/01/30 16:23:03;;;;;;;40.13;5.45;;;;;;;5.51;76.13;102740.53;10504183;28;20032;-75
2022/01/30 16:28:04;;;;;;;26.50;7.55;;;;;;;5.32;76.65;102728.53;10539361;28;20040;-75
2022/01/30 16:33:05;;;;;;;15.80;6.13;;;;;;;5.15;77.34;102720.94;10538303;28;20450;-74
2022/01/30 16:38:05;;;;;;;13.57;5.75;;;;;;;5.08;77.98;102717.00;10504553;28;20036;-74
2022/01/30 16:43:14;;;;;;;20.33;6.97;;;;;;;5.09;78.63;102727.59;10522798;28;20036;-74
2022/01/30 16:48:18;;;;;;;29.98;7.43;;;;;;;5.15;79.00;102720.94;10504256;28;20039;-75
2022/01/30 16:53:19;;;;;;;27.67;7.35;;;;;;;5.11;79.01;102714.09;10538546;28;20036;-74
2022/01/30 16:58:19;;;;;;;33.00;9.60;;;;;;;5.02;79.29;102699.53;10520291;28;20044;-75
2022/01/30 17:03:20;;;;;;;11.50;5.00;;;;;;;4.92;80.65;102703.03;10537940;28;20030;-75
2022/01/30 17:08:20;;;;;;;26.52;5.28;;;;;;;4.89;80.94;102680.81;10538411;28;20047;-74
2022/01/30 17:13:21;;;;;;;13.05;4.57;;;;;;;4.88;81.29;102683.59;10519483;28;20130;-74
2022/01/30 17:18:21;;;;;;;24.75;5.85;;;;;;;4.96;82.23;102685.72;10503354;28;20044;-75
2022/01/30 17:23:22;;;;;;;12.65;5.47;;;;;;;4.93;83.66;102668.00;10527513;28;20028;-75
2022/01/30 17:28:23;;;;;;;15.05;4.32;;;;;;;4.98;83.46;102652.41;10510161;28;20388;-74
2022/01/30 17:33:26;;;;;;;13.90;5.00;;;;;;;5.05;83.32;102650.97;10511664;28;20086;-75
2022/01/30 17:38:27;;;;;;;29.75;5.88;;;;;;;5.04;85.25;102648.38;10544973;28;20432;-75
2022/01/30 17:43:27;;;;;;;7.57;4.32;;;;;;;5.00;85.71;102644.22;10509581;28;20060;-75
2022/01/30 17:48:28;;;;;;;19.42;7.40;;;;;;;5.00;86.15;102641.53;10509541;28;20194;-75
2022/01/30 17:53:28;;;;;;;25.25;8.73;;;;;;;4.95;86.82;102644.59;10525464;28;20446;-75
2022/01/30 17:58:28;;;;;;;20.50;6.40;;;;;;;5.00;86.96;102642.38;10544870;28;20106;-75
2022/01/30 18:03:29;;;;;;;30.27;6.13;;;;;;;5.01;87.11;102632.50;10544316;28;20032;-75
2022/01/30 18:08:29;;;;;;;25.33;7.45;;;;;;;5.00;87.16;102615.53;10509653;28;20111;-75
2022/01/30 18:13:31;;;;;;;13.40;5.35;;;;;;;4.93;88.16;102610.78;10545108;28;20067;-75
2022/01/30 18:18:31;;;;;;;17.70;6.05;;;;;;;4.95;88.10;102600.78;10542874;28;20047;-75
2022/01/30 18:23:32;;;;;;;25.58;5.72;;;;;;;4.92;87.66;102587.59;10543787;28;20047;-74
2022/01/30 18:28:32;;;;;;;13.45;5.65;;;;;;;4.87;89.46;102578.06;10543355;28;20472;-74
2022/01/30 18:33:34;;;;;;;11.65;5.47;;;;;;;4.99;88.74;102581.63;10541916;28;20032;-74
2022/01/30 18:43:35;;;;;;;22.67;5.72;;;;;;;4.92;89.23;102552.69;10542659;28;20497;-74
2022/01/30 18:48:37;;;;;;;16.65;6.70;;;;;;;4.84;89.54;102550.59;10524894;28;20417;-74
2022/01/30 18:53:37;;;;;;;29.52;7.10;;;;;;;4.81;89.37;102522.16;10507958;28;20040;-74
2022/01/30 18:58:38;;;;;;;18.35;5.47;;;;;;;4.80;88.60;102499.00;10547019;28;20071;-75
2022/01/30 19:03:39;;;;;;;25.85;6.18;;;;;;;4.78;88.46;102494.72;10506862;28;20387;-75
2022/01/30 19:08:39;;;;;;;8.60;4.78;;;;;;;4.76;88.80;102491.31;10541615;28;20039;-74
2022/01/30 19:13:40;;;;;;;17.40;5.32;;;;;;;4.77;89.22;102464.34;10541349;28;20039;-75
2022/01/30 19:18:40;;;;;;;17.10;5.45;;;;;;;4.80;88.89;102448.00;10541954;28;20036;-75
2022/01/30 19:23:40;;;;;;;24.77;6.80;;;;;;;4.92;88.15;102408.59;10541533;28;20348;-74
2022/01/30 19:28:41;;;;;;;12.93;5.40;;;;;;;4.95;87.96;102383.34;10522790;28;20043;-74
2022/01/30 19:33:42;;;;;;;20.48;5.32;;;;;;;4.80;88.97;102369.31;10522580;28;20032;-75
2022/01/30 19:38:42;;;;;;;11.98;4.03;;;;;;;4.83;88.85;102337.72;10522132;28;20032;-75
2022/01/30 19:43:43;;;;;;;9.48;3.90;;;;;;;4.76;89.12;102316.88;10521836;28;20028;-75
2022/01/30 19:48:43;;;;;;;24.63;5.43;;;;;;;4.73;89.47;102267.00;10540888;28;20320;-75
2022/01/30 19:53:43;;;;;;;39.08;7.07;;;;;;;4.77;89.22;102281.84;10522105;28;20059;-75
2022/01/30 19:58:44;;;;;;;19.67;4.63;;;;;;;4.80;89.17;102257.44;10540765;28;20471;-75
2022/01/30 20:03:44;;;;;;;9.98;4.18;;;;;;;4.81;88.87;102235.00;10540379;28;20040;-75
2022/01/30 20:08:45;;;;;;;14.65;5.93;;;;;;;4.86;88.28;102229.25;10539815;28;20035;-75
2022/01/30 20:13:45;;;;;;;12.25;5.30;;;;;;;4.93;87.96;102232.28;10522281;28;20039;-75
2022/01/30 20:18:46;;;;;;;11.95;5.35;;;;;;;4.95;87.45;102224.97;10539741;28;20086;-75
2022/01/30 20:23:46;;;;;;;6.63;4.22;;;;;;;4.98;86.35;102219.31;10521531;28;20093;-75
2022/01/30 20:28:47;;;;;;;19.27;5.75;;;;;;;5.04;85.81;102191.94;10520908;28;20028;-75
2022/01/30 20:33:48;;;;;;;18.92;6.05;;;;;;;5.02;85.80;102173.28;10540222;28;20040;-75
2022/01/30 20:38:49;;;;;;;14.90;7.60;;;;;;;5.05;86.24;102172.19;10539107;28;20065;-75
2022/01/30 20:43:49;;;;;;;22.17;6.32;;;;;;;5.07;86.77;102163.03;10539323;28;20036;-75
2022/01/30 20:48:49;;;;;;;24.02;8.07;;;;;;;5.03;86.97;102166.09;10520888;28;20479;-75
2022/01/30 20:53:50;;;;;;;26.20;6.50;;;;;;;5.02;87.12;102149.13;10539172;28;20071;-74
2022/01/30 20:58:50;;;;;;;36.95;7.45;;;;;;;4.96;87.94;102140.75;10528215;28;20059;-75
2022/01/30 21:03:51;;;;;;;15.05;7.10;;;;;;;4.96;88.07;102111.22;10528696;28;20111;-75
2022/01/30 21:08:52;;;;;;;13.02;5.32;;;;;;;4.87;88.57;102078.81;10546897;28;20231;-75
2022/01/30 21:13:52;;;;;;;25.27;7.78;;;;;;;4.87;88.29;102069.91;10528809;28;20482;-75
2022/01/30 21:18:53;;;;;;;18.35;6.00;;;;;;;4.89;88.10;102081.38;10513344;28;20039;-75
2022/01/30 21:23:53;;;;;;;16.38;5.80;;;;;;;4.85;88.79;102069.19;10546200;28;20055;-75
2022/01/30 21:28:54;;;;;;;16.27;6.43;;;;;;;4.95;88.63;102069.28;10546470;28;20032;-74
2022/01/30 21:33:54;;;;;;;18.50;6.40;;;;;;;4.79;89.13;102073.25;10545410;28;20459;-75
2022/01/30 21:38:55;;;;;;;38.65;9.15;;;;;;;4.82;88.62;102054.22;10545579;28;20039;-74
2022/01/30 21:43:55;;;;;;;10.27;6.82;;;;;;;4.81;89.43;102035.56;10546463;28;20065;-74
2022/01/30 21:48:56;;;;;;;27.67;7.35;;;;;;;4.86;89.54;101996.59;10546395;28;20412;-74
2022/01/30 21:53:56;;;;;;;9.85;4.68;;;;;;;4.85;89.14;101949.28;10544991;28;20036;-75
2022/01/30 21:58:56;;;;;;;12.10;5.97;;;;;;;4.74;89.64;101871.56;10526962;28;20067;-75
2022/01/30 22:03:57;;;;;;;50.92;8.48;;;;;;;4.76;89.55;101837.38;10545203;28;20060;-74
2022/01/30 22:08:57;;;;;;;21.00;7.82;;;;;;;4.63;89.92;101818.00;10543162;28;20414;-75
2022/01/30 22:14:03;;;;;;;20.55;7.47;;;;;;;4.47;91.62;101778.28;10528135;28;20046;-75
2022/01/30 22:19:03;;;;;;;21.77;10.10;;;;;;;4.60;91.22;101783.41;10544696;28;20043;-75
2022/01/30 22:24:04;;;;;;;33.53;9.95;;;;;;;4.77;91.03;101787.25;10543731;28;20024;-75
2022/01/30 22:29:06;;;;;;;13.90;8.05;;;;;;;4.82;90.43;101764.38;10524804;28;20119;-75
2022/01/30 22:34:07;;;;;;;19.15;7.88;;;;;;;4.78;90.46;101738.81;10543580;28;20032;-75
2022/01/30 22:39:07;;;;;;;29.27;9.38;;;;;;;4.80;90.89;101723.41;10543174;28;20035;-75
2022/01/30 22:44:08;;;;;;;19.38;7.25;;;;;;;4.84;90.99;101730.19;10524951;28;20458;-75
2022/01/30 22:49:08;;;;;;;17.60;8.95;;;;;;;4.77;91.27;101699.53;10524162;28;20044;-75
2022/01/30 22:54:08;;;;;;;9.20;7.63;;;;;;;4.78;91.41;101671.72;10544322;28;20129;-76
2022/01/30 22:59:09;;;;;;;18.52;9.35;;;;;;;4.85;91.43;101627.25;10543020;28;20056;-76
2022/01/30 23:04:09;;;;;;;22.13;10.43;;;;;;;4.80;91.84;101597.31;10542960;28;20085;-75
2022/01/30 23:09:10;;;;;;;12.98;7.28;;;;;;;4.87;92.11;101581.47;10542566;28;20446;-75
2022/01/30 23:14:10;;;;;;;29.38;9.82;;;;;;;4.89;92.45;101592.91;10541383;28;20047;-75
2022/01/30 23:19:10;;;;;;;29.67;9.18;;;;;;;4.86;92.84;101580.63;10506545;28;20039;-75
2022/01/30 23:24:11;;;;;;;22.73;7.63;;;;;;;4.90;93.11;101549.81;10523123;28;20028;-75
2022/01/30 23:29:11;;;;;;;17.70;6.15;;;;;;;4.95;93.29;101537.81;10541298;28;20098;-75
2022/01/30 23:34:12;;;;;;;17.95;7.43;;;;;;;4.98;93.53;101490.06;10541307;28;20032;-76
2022/01/30 23:39:13;;;;;;;18.17;6.32;;;;;;;4.87;95.05;101472.28;10541087;28;20357;-76
2022/01/30 23:44:16;;;;;;;16.83;8.05;;;;;;;4.70;96.96;101458.81;10540698;28;20028;-78
2022/01/30 23:49:17;;;;;;;16.55;7.38;;;;;;;4.57;99.05;101446.53;10540617;28;20028;-78
2022/01/30 23:54:17;;;;;;;31.58;7.93;;;;;;;4.49;99.80;101413.38;10522845;28;20043;-79
2022/01/30 23:59:18;;;;;;;10.45;6.43;;;;;;;4.42;100.00;101397.88;10542175;28;20143;-79
